Time;durP1;ratioP1;P1;durP2;ratioP2;P2;SDS_P1;SDS_P2;PMS_P1;PMS_P2;Temp;Humidity;BMP_temperature;BMP_pressure;BME280_temperature;BME280_humidity;BME280_pressure;Samples;Min_cycle;Max_cycle;Signal;HPM_P1;HPM_P2
2022/09/18 00:00:47;;;;;;;8.73;0.90;;;;;;;9.66;100.00;101538.16;5053516;28;20032;-87
2022/09/18 00:03:15;;;;;;;4.30;0.93;;;;;;;9.74;100.00;101555.72;5045235;28;20067;-87
2022/09/18 00:05:41;;;;;;;8.13;1.10;;;;;;;9.75;100.00;101552.81;5033826;28;20079;-87
2022/09/18 00:08:07;;;;;;;5.40;1.10;;;;;;;9.67;100.00;101545.16;5039420;28;20548;-87
2022/09/18 00:10:33;;;;;;;5.93;0.90;;;;;;;9.76;100.00;101551.75;5053189;28;20102;-87
2022/09/18 00:13:00;;;;;;;10.73;1.20;;;;;;;9.79;100.00;101564.69;5050029;28;20036;-88
2022/09/18 00:15:26;;;;;;;4.60;1.50;;;;;;;9.77;100.00;101547.25;5053374;28;20039;-87
2022/09/18 00:17:51;;;;;;;7.65;1.45;;;;;;;9.73;100.00;101544.19;5045661;28;20033;-88
2022/09/18 00:20:19;;;;;;;6.43;1.40;;;;;;;9.73;100.00;101535.38;5053242;28;20384;-88
2022/09/18 00:22:46;;;;;;;9.95;1.38;;;;;;;9.78;100.00;101547.00;5046034;28;20041;-88
2022/09/18 00:25:11;;;;;;;9.35;1.70;;;;;;;9.74;100.00;101545.03;5033232;28;20022;-88
2022/09/18 00:27:37;;;;;;;14.03;2.00;;;;;;;9.75;100.00;101543.97;5034054;28;20079;-88
2022/09/18 00:30:02;;;;;;;8.60;2.20;;;;;;;9.63;100.00;101527.94;5049868;28;20413;-88
2022/09/18 00:32:28;;;;;;;7.75;2.20;;;;;;;9.68;100.00;101533.38;5049850;28;20124;-87
2022/09/18 00:34:53;;;;;;;9.90;2.13;;;;;;;9.77;100.00;101540.00;5032797;28;20466;-88
2022/09/18 00:37:18;;;;;;;9.97;2.40;;;;;;;9.77;100.00;101533.84;5033181;28;20060;-88
2022/09/18 00:39:44;;;;;;;7.93;2.00;;;;;;;9.74;100.00;101535.13;5050760;28;20647;-85
2022/09/18 00:42:12;;;;;;;9.63;2.13;;;;;;;9.74;100.00;101539.66;5051320;28;20032;-85
2022/09/18 00:44:43;;;;;;;9.43;1.90;;;;;;;9.74;100.00;101545.03;5029713;28;20025;-85
2022/09/18 00:49:50;;;;;;;8.57;2.00;;;;;;;9.73;100.00;101552.22;5289854;22;20064;-85
2022/09/18 00:52:18;;;;;;;6.22;2.13;;;;;;;9.76;100.00;101543.72;5012834;28;20026;-85
2022/09/18 00:54:48;;;;;;;10.15;2.15;;;;;;;9.76;100.00;101535.69;5030774;28;20088;-85
2022/09/18 00:57:31;;;;;;;6.45;1.90;;;;;;;9.73;100.00;101524.66;5020984;28;20053;-85
2022/09/18 00:59:58;;;;;;;8.57;2.30;;;;;;;9.79;100.00;101542.44;5012435;28;20037;-85
2022/09/18 01:02:24;;;;;;;7.47;2.00;;;;;;;9.72;100.00;101536.41;5009699;28;20037;-85
2022/09/18 01:04:50;;;;;;;12.47;2.53;;;;;;;9.77;100.00;101545.34;5031015;28;20056;-85
2022/09/18 01:07:34;;;;;;;4.90;1.98;;;;;;;9.78;100.00;101549.66;5030238;28;22285;-86
2022/09/18 01:10:08;;;;;;;7.70;2.63;;;;;;;9.80;100.00;101549.41;5012113;28;20040;-86
2022/09/18 01:13:16;;;;;;;6.33;1.97;;;;;;;9.80;100.00;101550.25;5012349;28;20050;-85
2022/09/18 01:15:49;;;;;;;9.53;2.20;;;;;;;9.78;100.00;101548.84;5024243;28;20335;-86
2022/09/18 01:18:45;;;;;;;6.65;2.22;;;;;;;9.80;100.00;101555.59;5019803;28;20486;-86
2022/09/18 01:21:20;;;;;;;7.13;2.97;;;;;;;9.82;100.00;101555.34;5010533;28;20124;-85
2022/09/18 01:24:27;;;;;;;8.63;2.42;;;;;;;9.81;100.00;101562.59;5011793;28;20026;-86
2022/09/18 01:26:56;;;;;;;10.80;2.72;;;;;;;9.82;100.00;101564.22;5011688;28;20125;-86
2022/09/18 01:29:42;;;;;;;7.78;2.35;;;;;;;9.76;100.00;101549.09;5012894;28;20014;-86
2022/09/18 01:32:18;;;;;;;10.63;2.47;;;;;;;9.83;100.00;101554.31;5012038;28;20474;-86
2022/09/18 01:35:06;;;;;;;7.93;2.75;;;;;;;9.81;100.00;101541.16;5028881;28;20037;-85
2022/09/18 01:37:40;;;;;;;7.85;2.67;;;;;;;9.84;100.00;101546.06;5014261;28;20033;-85
2022/09/18 01:40:30;;;;;;;6.93;2.40;;;;;;;9.83;100.00;101538.25;4991747;28;20484;-86
2022/09/18 01:43:00;;;;;;;7.90;2.30;;;;;;;9.80;100.00;101544.06;5002244;28;20308;-85
2022/09/18 01:45:33;;;;;;;11.25;2.05;;;;;;;9.75;100.00;101542.09;5028354;28;20033;-86
2022/09/18 01:48:11;;;;;;;6.55;2.25;;;;;;;9.71;100.00;101532.91;5024939;28;20025;-86
2022/09/18 01:50:44;;;;;;;5.28;1.90;;;;;;;9.59;100.00;101526.75;5011464;28;20599;-86
2022/09/18 01:53:18;;;;;;;5.70;2.10;;;;;;;9.65;100.00;101534.66;5022752;28;20661;-86
2022/09/18 01:55:50;;;;;;;4.45;1.90;;;;;;;9.53;100.00;101515.94;5012158;28;20580;-86
2022/09/18 01:58:19;;;;;;;6.05;2.40;;;;;;;9.59;100.00;101538.25;5010384;28;20029;-86
2022/09/18 02:00:53;;;;;;;11.50;2.40;;;;;;;9.51;100.00;101525.25;5011140;28;20040;-86
2022/09/18 02:03:25;;;;;;;7.57;2.20;;;;;;;9.47;100.00;101513.38;5029875;28;20489;-86
2022/09/18 02:05:56;;;;;;;9.03;2.53;;;;;;;9.47;100.00;101516.88;5031442;28;20029;-86
2022/09/18 02:08:46;;;;;;;6.13;2.37;;;;;;;9.48;100.00;101509.66;5023026;28;20656;-86
2022/09/18 02:11:14;;;;;;;8.18;2.53;;;;;;;9.55;100.00;101526.44;5008008;28;20041;-86
2022/09/18 02:13:53;;;;;;;8.68;2.78;;;;;;;9.61;100.00;101527.34;5031519;28;20030;-87
2022/09/18 02:16:33;;;;;;;6.68;2.88;;;;;;;9.62;100.00;101523.63;5031389;28;20112;-87
2022/09/18 02:19:06;;;;;;;10.43;3.35;;;;;;;9.68;100.00;101520.81;5017153;28;20099;-88
2022/09/18 02:21:31;;;;;;;9.85;3.05;;;;;;;9.69;100.00;101525.13;5015118;28;20086;-87
2022/09/18 02:24:03;;;;;;;13.30;3.77;;;;;;;9.65;100.00;101520.47;5033000;28;20022;-87
2022/09/18 02:26:31;;;;;;;10.48;2.90;;;;;;;9.60;100.00;101497.06;5033036;28;20112;-87
2022/09/18 02:28:56;;;;;;;10.70;3.25;;;;;;;9.65;100.00;101502.56;5024348;28;20056;-87
2022/09/18 02:31:22;;;;;;;10.60;3.10;;;;;;;9.66;100.00;101501.50;5022380;28;20029;-87
2022/09/18 02:33:47;;;;;;;11.37;3.40;;;;;;;9.60;100.00;101488.25;5035526;28;20069;-87
2022/09/18 02:36:43;;;;;;;10.43;3.10;;;;;;;9.69;100.00;101508.25;5027201;28;20065;-87
2022/09/18 02:39:26;;;;;;;8.85;2.70;;;;;;;9.70;100.00;101502.66;5013629;28;20065;-86
2022/09/18 02:41:58;;;;;;;9.85;3.08;;;;;;;9.64;100.00;101492.09;5015748;28;20117;-87
2022/09/18 02:44:40;;;;;;;7.80;2.83;;;;;;;9.69;100.00;101500.22;5031054;28;20034;-87
2022/09/18 02:47:39;;;;;;;11.43;3.10;;;;;;;9.66;100.00;101500.69;5009419;28;20026;-87
2022/09/18 02:50:26;;;;;;;9.55;2.80;;;;;;;9.68;100.00;101499.41;5010950;28;20056;-87
2022/09/18 02:53:16;;;;;;;11.82;2.35;;;;;;;9.70;100.00;101502.66;5024590;28;20042;-87
2022/09/18 02:55:55;;;;;;;9.43;2.50;;;;;;;9.71;100.00;101503.47;5031221;28;20079;-87
2022/09/18 02:58:28;;;;;;;7.18;2.40;;;;;;;9.72;100.00;101501.63;5023410;28;20473;-87
2022/09/18 03:00:58;;;;;;;7.27;2.30;;;;;;;9.66;100.00;101498.03;5010188;28;20034;-86
2022/09/18 03:03:29;;;;;;;9.60;2.70;;;;;;;9.72;100.00;101494.38;5017900;28;20299;-86
2022/09/18 03:05:56;;;;;;;7.65;2.63;;;;;;;9.77;100.00;101505.22;5013942;28;20026;-87
2022/09/18 03:08:21;;;;;;;11.40;2.13;;;;;;;9.60;100.00;101475.69;5015135;28;20404;-86
2022/09/18 03:10:47;;;;;;;12.48;2.90;;;;;;;9.73;100.00;101495.22;5014220;28;20026;-87
2022/09/18 03:13:12;;;;;;;7.33;2.20;;;;;;;9.73;100.00;101490.66;5029080;28;20030;-87
2022/09/18 03:15:37;;;;;;;13.20;2.27;;;;;;;9.72;100.00;101491.72;5034538;28;20036;-87
2022/09/18 03:18:04;;;;;;;13.63;2.23;;;;;;;9.70;100.00;101491.13;5030258;28;20053;-87
2022/09/18 03:20:30;;;;;;;5.88;1.98;;;;;;;9.75;100.00;101482.41;5015960;28;20026;-86
2022/09/18 03:22:55;;;;;;;13.97;2.60;;;;;;;9.78;100.00;101481.94;5027317;28;20120;-87
2022/09/18 03:25:20;;;;;;;11.63;2.38;;;;;;;9.81;100.00;101481.47;5034449;28;20548;-87
2022/09/18 03:27:45;;;;;;;9.37;1.90;;;;;;;9.76;100.00;101473.34;5031884;28;20029;-86
2022/09/18 03:30:11;;;;;;;9.57;2.00;;;;;;;9.84;100.00;101476.47;5013680;28;20034;-86
2022/09/18 03:32:36;;;;;;;9.27;2.03;;;;;;;9.80;100.00;101475.31;5007452;28;20030;-87
2022/09/18 03:35:02;;;;;;;10.87;1.80;;;;;;;9.82;100.00;101470.53;4994773;28;20038;-87
2022/09/18 03:37:27;;;;;;;8.90;1.57;;;;;;;9.84;100.00;101472.97;4994936;28;20273;-87
2022/09/18 03:39:52;;;;;;;15.33;2.00;;;;;;;9.85;100.00;101475.41;5010539;28;20021;-87
2022/09/18 03:42:18;;;;;;;9.07;1.57;;;;;;;9.80;100.00;101467.28;5021797;28;20159;-86
2022/09/18 03:44:43;;;;;;;7.20;1.50;;;;;;;9.79;100.00;101454.13;5033946;28;20104;-86
2022/09/18 03:52:08;;;;;;;12.57;1.90;;;;;;;9.83;100.00;101464.13;5886723;22;20061;-87
2022/09/18 03:54:34;;;;;;;11.57;1.70;;;;;;;9.80;100.00;101466.44;5014301;28;20038;-87
2022/09/18 03:56:59;;;;;;;7.60;1.10;;;;;;;9.70;100.00;101453.66;5021134;22;20049;-87
2022/09/18 03:59:24;;;;;;;12.13;1.70;;;;;;;9.61;100.00;101442.53;5007554;28;20032;-87
2022/09/18 04:01:50;;;;;;;9.73;1.43;;;;;;;9.55;100.00;101436.25;5012751;28;20112;-87
2022/09/18 04:04:15;;;;;;;6.70;1.33;;;;;;;9.66;100.00;101455.22;5013822;28;20056;-87
2022/09/18 04:06:40;;;;;;;9.27;1.23;;;;;;;9.62;100.00;101457.53;5013906;28;20108;-86
2022/09/18 04:09:05;;;;;;;8.20;1.10;;;;;;;9.57;100.00;101457.44;5009340;28;20045;-88
2022/09/18 04:11:31;;;;;;;6.40;0.97;;;;;;;9.53;100.00;101458.94;5013215;28;20026;-88
2022/09/18 04:13:56;;;;;;;14.10;1.27;;;;;;;9.53;100.00;101461.63;5012409;28;20038;-88
2022/09/18 04:16:21;;;;;;;7.85;1.20;;;;;;;9.52;100.00;101463.47;5012885;28;20026;-88
2022/09/18 04:18:47;;;;;;;6.83;1.27;;;;;;;9.47;100.00;101444.66;4988914;28;20700;-88
2022/09/18 04:21:12;;;;;;;5.20;1.03;;;;;;;9.51;100.00;101443.13;5005270;28;20036;-88
2022/09/18 04:23:37;;;;;;;6.03;0.97;;;;;;;9.54;100.00;101447.22;5013505;28;20477;-87
2022/09/18 04:26:07;;;;;;;8.20;0.83;;;;;;;9.63;100.00;101463.72;5011703;28;20044;-87
2022/09/18 04:28:33;;;;;;;8.48;1.33;;;;;;;9.67;100.00;101459.53;4997688;28;20022;-87
2022/09/18 04:30:58;;;;;;;10.00;1.00;;;;;;;9.59;100.00;101447.28;5012142;28;20421;-87
2022/09/18 04:33:26;;;;;;;8.80;0.90;;;;;;;9.63;100.00;101461.03;5012973;28;20026;-87
2022/09/18 04:35:52;;;;;;;7.47;1.00;;;;;;;9.63;100.00;101453.00;5012983;28;20079;-87
2022/09/18 04:38:26;;;;;;;6.78;0.80;;;;;;;9.65;100.00;101466.97;5012225;28;20030;-87
2022/09/18 04:40:55;;;;;;;9.73;1.05;;;;;;;9.69;100.00;101468.09;5012590;28;20030;-87
2022/09/18 04:43:20;;;;;;;7.68;0.85;;;;;;;9.66;100.00;101461.38;5012398;28;20029;-87
2022/09/18 04:45:46;;;;;;;6.20;0.73;;;;;;;9.67;100.00;101470.22;5013012;28;20034;-87
2022/09/18 04:48:12;;;;;;;10.38;1.00;;;;;;;9.66;100.00;101465.91;5010715;28;20119;-86
2022/09/18 04:50:37;;;;;;;6.93;1.10;;;;;;;9.69;100.00;101474.28;5012996;28;20065;-87
2022/09/18 04:53:02;;;;;;;10.10;1.08;;;;;;;9.60;100.00;101454.28;5012717;28;20030;-87
2022/09/18 04:55:28;;;;;;;8.43;0.80;;;;;;;9.66;100.00;101468.59;5012267;28;20037;-87
2022/09/18 04:57:53;;;;;;;11.37;1.23;;;;;;;9.55;100.00;101446.16;5011345;28;20109;-87
2022/09/18 05:00:19;;;;;;;4.90;1.00;;;;;;;9.61;100.00;101465.81;5011120;28;20030;-87
2022/09/18 05:02:44;;;;;;;6.70;1.00;;;;;;;9.60;100.00;101461.50;5013538;28;20034;-87
2022/09/18 05:05:09;;;;;;;5.83;0.90;;;;;;;9.56;100.00;101458.50;5013372;28;20548;-87
2022/09/18 05:07:36;;;;;;;9.83;0.90;;;;;;;9.59;100.00;101467.91;5017036;28;20034;-87
2022/09/18 05:10:01;;;;;;;10.38;0.90;;;;;;;9.58;100.00;101455.56;5026477;28;20077;-87
2022/09/18 05:12:26;;;;;;;6.10;0.80;;;;;;;9.40;100.00;101430.59;5027995;28;20030;-87
2022/09/18 05:14:52;;;;;;;3.80;0.97;;;;;;;9.49;100.00;101455.94;5029614;28;20033;-88
2022/09/18 05:17:17;;;;;;;7.57;0.77;;;;;;;9.43;100.00;101437.31;5012969;28;20037;-90
2022/09/18 05:19:42;;;;;;;6.57;0.90;;;;;;;9.56;100.00;101455.81;5012680;28;20033;-87
2022/09/18 05:22:08;;;;;;;4.60;0.77;;;;;;;9.43;100.00;101432.78;5010860;28;20501;-86
2022/09/18 05:24:34;;;;;;;10.73;1.37;;;;;;;9.57;100.00;101454.75;5011097;28;20493;-86
2022/09/18 05:26:59;;;;;;;9.38;0.90;;;;;;;9.53;100.00;101461.63;5011868;28;20029;-86
2022/09/18 05:29:24;;;;;;;11.50;1.20;;;;;;;9.63;100.00;101477.88;5011485;28;20034;-86
2022/09/18 05:31:50;;;;;;;12.87;1.00;;;;;;;9.60;100.00;101475.69;5011184;28;20497;-86
2022/09/18 05:34:15;;;;;;;10.75;1.08;;;;;;;9.64;100.00;101468.00;5012222;28;20473;-86
2022/09/18 05:36:40;;;;;;;5.83;1.07;;;;;;;9.54;100.00;101444.53;5011881;28;20032;-86
2022/09/18 05:39:05;;;;;;;6.03;0.93;;;;;;;9.65;100.00;101467.75;5011215;28;20034;-85
2022/09/18 05:41:31;;;;;;;7.77;1.03;;;;;;;9.66;100.00;101469.38;5009605;28;20497;-86
2022/09/18 05:43:56;;;;;;;7.97;1.33;;;;;;;9.57;100.00;101462.78;5010556;28;20436;-86
2022/09/18 05:46:21;;;;;;;6.93;1.37;;;;;;;9.70;100.00;101477.75;5011132;28;20032;-86
2022/09/18 05:48:48;;;;;;;5.73;0.87;;;;;;;9.66;100.00;101458.69;5011376;28;20033;-86
2022/09/18 05:51:14;;;;;;;8.07;1.00;;;;;;;9.74;100.00;101467.41;5011237;28;20394;-82
2022/09/18 05:53:41;;;;;;;11.88;1.10;;;;;;;9.74;100.00;101462.06;5005489;28;20030;-82
2022/09/18 05:56:06;;;;;;;10.70;1.20;;;;;;;9.82;100.00;101461.66;5010554;28;20080;-82
2022/09/18 05:58:32;;;;;;;7.53;1.00;;;;;;;9.69;100.00;101441.34;5007838;28;20022;-83
2022/09/18 06:01:00;;;;;;;7.20;1.10;;;;;;;9.81;100.00;101454.69;5008068;28;20045;-83
2022/09/18 06:03:25;;;;;;;7.43;1.08;;;;;;;9.82;100.00;101457.16;5008447;28;20125;-83
2022/09/18 06:05:52;;;;;;;6.80;1.20;;;;;;;9.89;100.00;101454.34;5009579;28;20109;-83
2022/09/18 06:08:17;;;;;;;9.05;0.88;;;;;;;9.95;100.00;101473.97;5008595;28;20547;-83
2022/09/18 06:10:43;;;;;;;7.30;0.90;;;;;;;9.92;100.00;101463.75;5009497;28;20045;-83
2022/09/18 06:13:14;;;;;;;9.35;1.10;;;;;;;9.97;100.00;101463.84;5009231;28;20042;-82
2022/09/18 06:15:44;;;;;;;7.05;0.93;;;;;;;9.90;100.00;101447.94;5007996;28;20037;-83
2022/09/18 06:18:10;;;;;;;6.20;1.10;;;;;;;10.06;100.00;101456.25;5010347;28;20037;-83
2022/09/18 06:20:35;;;;;;;17.77;1.27;;;;;;;10.15;100.00;101471.69;5008339;28;20296;-82
2022/09/18 06:23:01;;;;;;;7.53;1.20;;;;;;;10.20;100.00;101456.78;5008754;28;20035;-82
2022/09/18 06:25:28;;;;;;;6.88;1.05;;;;;;;10.36;100.00;101458.69;5009493;28;20792;-82
2022/09/18 06:27:59;;;;;;;6.05;1.20;;;;;;;10.42;100.00;101438.97;5010573;28;20037;-82
2022/09/18 06:30:28;;;;;;;14.27;1.70;;;;;;;10.69;100.00;101458.97;5008856;28;20029;-82
2022/09/18 06:32:55;;;;;;;5.90;1.20;;;;;;;10.80;100.00;101454.59;5007475;28;20030;-82
2022/09/18 06:35:21;;;;;;;9.70;1.45;;;;;;;10.88;100.00;101464.94;5009486;28;20122;-82
2022/09/18 06:37:46;;;;;;;13.47;1.60;;;;;;;10.87;100.00;101455.25;5009940;28;20126;-82
2022/09/18 06:40:11;;;;;;;7.60;1.20;;;;;;;10.95;100.00;101457.53;5008769;28;20030;-83
2022/09/18 06:42:37;;;;;;;6.10;1.47;;;;;;;10.97;100.00;101455.41;5008088;28;20038;-82
2022/09/18 06:45:02;;;;;;;8.73;1.27;;;;;;;10.96;100.00;101444.94;5009428;28;20033;-82
2022/09/18 06:47:27;;;;;;;11.30;1.33;;;;;;;11.00;100.00;101449.56;5010002;28;20030;-82
2022/09/18 06:49:53;;;;;;;7.83;1.63;;;;;;;11.05;100.00;101452.31;5006642;28;20177;-81
2022/09/18 06:52:18;;;;;;;6.70;1.40;;;;;;;11.00;100.00;101462.97;5008866;28;20034;-82
2022/09/18 06:54:43;;;;;;;6.93;1.40;;;;;;;10.98;100.00;101462.41;5008426;28;20022;-82
2022/09/18 06:57:09;;;;;;;6.70;1.37;;;;;;;10.97;100.00;101463.44;5009069;28;20385;-83
2022/09/18 06:59:34;;;;;;;9.80;1.50;;;;;;;10.82;100.00;101428.38;5009273;28;20293;-82
2022/09/18 07:01:59;;;;;;;8.13;1.40;;;;;;;11.03;100.00;101457.13;5008640;28;20037;-81
2022/09/18 07:04:25;;;;;;;7.53;1.83;;;;;;;11.12;100.00;101462.88;5010225;28;20033;-82
2022/09/18 07:06:50;;;;;;;6.67;1.83;;;;;;;11.19;100.00;101457.34;5009299;28;20032;-82
2022/09/18 07:09:16;;;;;;;8.77;1.97;;;;;;;11.15;100.00;101448.16;5009636;28;20084;-82
2022/09/18 07:11:41;;;;;;;12.98;2.47;;;;;;;11.18;100.00;101450.34;5008940;28;20030;-82
2022/09/18 07:14:07;;;;;;;9.33;1.80;;;;;;;11.26;100.00;101455.31;5008989;28;20041;-82
2022/09/18 07:16:33;;;;;;;13.90;1.85;;;;;;;11.30;100.00;101458.31;5010134;28;20437;-81
2022/09/18 07:18:58;;;;;;;10.63;1.67;;;;;;;11.36;100.00;101460.00;5007157;28;20069;-83
2022/09/18 07:21:24;;;;;;;12.43;1.90;;;;;;;11.38;100.00;101449.00;4997900;28;20057;-82
2022/09/18 07:23:49;;;;;;;10.67;2.13;;;;;;;11.40;100.00;101454.94;5009621;28;20370;-81
2022/09/18 07:26:14;;;;;;;10.40;2.27;;;;;;;11.46;100.00;101451.28;5008725;28;20084;-81
2022/09/18 07:28:40;;;;;;;10.80;2.10;;;;;;;11.49;100.00;101451.59;5010137;28;20109;-83
2022/09/18 07:31:05;;;;;;;9.25;1.50;;;;;;;11.46;100.00;101462.81;5007367;28;20068;-82
2022/09/18 07:33:31;;;;;;;14.83;1.43;;;;;;;11.27;100.00;101448.88;5009487;28;20462;-85
2022/09/18 07:36:04;;;;;;;11.88;1.77;;;;;;;11.30;100.00;101458.31;5009618;28;20050;-84
2022/09/18 07:38:30;;;;;;;13.32;1.50;;;;;;;11.25;100.00;101448.31;5005489;28;20061;-83
2022/09/18 07:40:55;;;;;;;11.77;1.90;;;;;;;11.21;100.00;101426.53;5009296;28;20045;-82
2022/09/18 07:43:20;;;;;;;7.20;1.57;;;;;;;11.45;100.00;101455.03;5008035;28;20087;-82
2022/09/18 07:45:46;;;;;;;8.27;2.42;;;;;;;11.54;100.00;101442.78;5009034;28;20033;-82
2022/09/18 07:48:11;;;;;;;8.87;2.10;;;;;;;11.69;100.00;101433.28;5008597;28;20033;-81
2022/09/18 07:50:37;;;;;;;5.60;1.73;;;;;;;11.88;100.00;101445.34;5008807;28;20083;-82
2022/09/18 07:53:04;;;;;;;8.87;2.10;;;;;;;11.95;100.00;101437.91;5013135;28;20041;-83
2022/09/18 07:55:30;;;;;;;7.55;2.00;;;;;;;12.08;100.00;101438.59;5010901;28;20029;-83
2022/09/18 07:57:58;;;;;;;13.23;1.80;;;;;;;12.16;100.00;101434.63;5011074;28;20497;-85
2022/09/18 08:00:25;;;;;;;7.22;1.90;;;;;;;12.25;100.00;101433.94;5010715;28;20022;-83
2022/09/18 08:03:01;;;;;;;9.50;2.10;;;;;;;12.32;100.00;101440.97;5008785;28;20045;-85
2022/09/18 08:05:26;;;;;;;5.32;1.75;;;;;;;12.42;100.00;101430.31;5012314;28;20065;-84
2022/09/18 08:07:51;;;;;;;10.10;1.73;;;;;;;12.52;100.00;101416.16;5029206;28;20048;-83
2022/09/18 08:10:16;;;;;;;6.83;1.93;;;;;;;12.69;100.00;101427.59;5032518;28;20029;-84
2022/09/18 08:12:42;;;;;;;7.03;1.80;;;;;;;12.73;100.00;101425.22;5011938;28;20049;-83
2022/09/18 08:15:08;;;;;;;6.37;1.50;;;;;;;12.69;100.00;101424.09;5012061;28;20022;-86
2022/09/18 08:17:33;;;;;;;7.22;1.77;;;;;;;12.70;100.00;101437.28;5013282;28;20026;-87
2022/09/18 08:19:59;;;;;;;9.80;1.83;;;;;;;12.68;100.00;101435.91;5011738;28;20014;-85
2022/09/18 08:22:24;;;;;;;7.38;1.73;;;;;;;12.55;100.00;101435.28;5011997;28;20450;-85
2022/09/18 08:24:49;;;;;;;5.87;1.40;;;;;;;12.43;100.00;101442.69;5006909;28;20026;-85
2022/09/18 08:27:15;;;;;;;5.43;1.60;;;;;;;12.41;100.00;101434.09;5011927;28;20038;-86
2022/09/18 08:29:40;;;;;;;7.50;1.77;;;;;;;12.50;100.00;101427.16;5010850;28;20026;-85
2022/09/18 08:32:06;;;;;;;5.85;1.63;;;;;;;12.67;100.00;101442.34;5011694;28;20054;-85
2022/09/18 08:34:31;;;;;;;5.27;1.63;;;;;;;12.75;100.00;101438.38;5010535;28;20109;-84
2022/09/18 08:36:56;;;;;;;10.50;1.90;;;;;;;12.68;100.00;101435.91;5012759;28;20026;-85
2022/09/18 08:39:22;;;;;;;7.33;1.73;;;;;;;12.59;100.00;101430.19;4994446;28;20076;-85
2022/09/18 08:42:06;;;;;;;9.97;1.70;;;;;;;12.67;100.00;101447.72;5007549;28;20300;-85
2022/09/18 08:44:44;;;;;;;6.70;1.73;;;;;;;12.69;100.00;101451.78;5011495;28;20026;-84
2022/09/18 08:47:18;;;;;;;8.27;1.52;;;;;;;12.79;100.00;101428.75;5011702;28;20033;-85
2022/09/18 08:49:48;;;;;;;7.73;1.80;;;;;;;12.94;100.00;101431.53;5012105;28;20402;-86
2022/09/18 08:52:22;;;;;;;7.50;1.40;;;;;;;13.15;100.00;101448.59;5012520;28;20300;-85
2022/09/18 08:55:07;;;;;;;5.65;1.60;;;;;;;13.22;100.00;101444.88;5011691;28;20032;-86
2022/09/18 08:57:42;;;;;;;6.53;1.58;;;;;;;13.30;100.00;101447.09;5012391;28;20048;-87
2022/09/18 09:00:10;;;;;;;7.22;1.50;;;;;;;13.28;100.00;101446.53;5008070;28;20076;-85
2022/09/18 09:02:47;;;;;;;3.42;1.52;;;;;;;13.14;100.00;101447.00;5011094;28;20481;-85
2022/09/18 09:05:25;;;;;;;7.68;1.50;;;;;;;13.08;100.00;101445.34;5010082;28;20022;-85
2022/09/18 09:08:18;;;;;;;7.43;1.20;;;;;;;13.19;100.00;101443.53;5011546;28;20037;-85
2022/09/18 09:10:59;;;;;;;9.15;1.73;;;;;;;13.52;100.00;101448.81;5009422;28;20038;-90
2022/09/18 09:13:58;;;;;;;3.85;1.02;;;;;;;13.67;100.00;101457.00;5012289;28;20038;-84
2022/09/18 09:16:45;;;;;;;6.80;1.20;;;;;;;13.70;100.00;101451.06;5009169;28;20436;-86
2022/09/18 09:19:26;;;;;;;4.10;1.13;;;;;;;13.80;100.00;101449.50;4999863;28;20292;-88
2022/09/18 09:22:02;;;;;;;5.55;1.30;;;;;;;13.95;100.00;101449.53;5010435;28;20038;-90
2022/09/18 09:24:34;;;;;;;4.80;1.33;;;;;;;14.01;100.00;101455.75;5011286;28;20034;-87
2022/09/18 09:27:30;;;;;;;4.65;1.30;;;;;;;14.01;100.00;101458.44;5008429;28;20025;-89
2022/09/18 09:30:13;;;;;;;8.18;1.40;;;;;;;13.85;100.00;101460.28;4999599;28;20129;-88
2022/09/18 09:32:56;;;;;;;7.05;1.50;;;;;;;13.66;100.00;101458.06;4977491;28;20132;-86
2022/09/18 09:35:31;;;;;;;4.47;1.38;;;;;;;13.44;100.00;101459.03;5011308;28;20036;-86
2022/09/18 09:38:02;;;;;;;5.25;1.73;;;;;;;13.33;100.00;101468.91;5000011;28;20073;-87
2022/09/18 09:40:38;;;;;;;6.63;1.58;;;;;;;13.34;100.00;101453.56;5010596;28;20034;-87
2022/09/18 09:43:29;;;;;;;5.97;1.83;;;;;;;13.57;100.00;101460.44;5011765;28;20036;-86
2022/09/18 09:45:59;;;;;;;4.57;2.20;;;;;;;13.73;100.00;101453.22;5008712;28;20297;-86
2022/09/18 09:48:47;;;;;;;6.55;2.03;;;;;;;13.88;100.00;101462.44;5010874;28;20036;-86
2022/09/18 09:51:21;;;;;;;4.93;1.80;;;;;;;13.86;100.00;101440.34;5009695;28;20032;-85
2022/09/18 09:53:54;;;;;;;6.10;1.70;;;;;;;13.99;100.00;101442.53;5008779;28;20042;-85
2022/09/18 09:59:00;;;;;;;2.60;0.73;;;;;;;13.79;100.00;101421.72;5819049;22;20053;-85
2022/09/18 10:01:38;;;;;;;7.32;0.90;;;;;;;13.88;100.00;101420.16;5035038;28;20401;-86
2022/09/18 10:04:09;;;;;;;5.10;1.13;;;;;;;13.97;100.00;101420.44;5033334;28;20396;-86
2022/09/18 10:07:03;;;;;;;4.68;0.82;;;;;;;14.13;100.00;101417.78;5022810;28;20034;-86
2022/09/18 10:09:47;;;;;;;4.57;1.20;;;;;;;14.30;100.00;101415.63;5026742;28;20039;-87
2022/09/18 10:12:29;;;;;;;4.10;1.20;;;;;;;14.37;100.00;101413.50;5030613;28;20280;-87
2022/09/18 10:15:16;;;;;;;7.00;1.17;;;;;;;14.37;100.00;101421.59;5030350;28;20684;-87
2022/09/18 10:17:44;;;;;;;5.25;1.17;;;;;;;14.31;100.00;101414.56;5032008;28;20032;-87
2022/09/18 10:20:17;;;;;;;3.03;1.05;;;;;;;14.30;100.00;101412.16;5025333;28;20037;-87
2022/09/18 10:22:45;;;;;;;4.13;1.20;;;;;;;14.60;100.00;101410.53;5028894;28;20493;-87
2022/09/18 10:25:35;;;;;;;3.55;1.33;;;;;;;14.94;100.00;101416.19;5025524;28;20151;-88
2022/09/18 10:28:00;;;;;;;5.40;1.30;;;;;;;15.11;100.00;101393.47;5028023;28;20029;-87
2022/09/18 10:30:26;;;;;;;9.33;1.33;;;;;;;15.42;100.00;101410.38;5026083;28;20071;-88
2022/09/18 10:32:51;;;;;;;4.27;1.63;;;;;;;15.54;100.00;101415.44;5032714;28;20029;-89
2022/09/18 10:35:32;;;;;;;2.60;1.35;;;;;;;15.54;100.00;101428.16;5033395;28;20035;-90
2022/09/18 10:37:58;;;;;;;5.57;1.63;;;;;;;15.44;100.00;101435.19;5040308;28;20029;-87
2022/09/18 10:40:38;;;;;;;4.40;1.13;;;;;;;15.50;100.00;101417.09;5036654;28;20037;-89
2022/09/18 10:43:06;;;;;;;5.13;1.52;;;;;;;15.68;100.00;101415.66;5027304;28;20029;-89
2022/09/18 10:45:40;;;;;;;5.68;1.40;;;;;;;15.69;100.00;101401.06;5031170;28;20025;-88
2022/09/18 10:48:19;;;;;;;7.55;1.02;;;;;;;15.93;100.00;101411.22;5030203;28;20021;-89
2022/09/18 10:50:53;;;;;;;3.50;1.17;;;;;;;15.79;99.95;101418.31;5030563;28;20067;-89
2022/09/18 10:53:30;;;;;;;3.42;0.82;;;;;;;15.58;100.00;101410.31;5028966;28;20079;-87
2022/09/18 10:56:03;;;;;;;4.43;0.80;;;;;;;15.23;100.00;101395.88;5029760;28;20040;-89
2022/09/18 10:58:30;;;;;;;4.57;1.13;;;;;;;15.10;100.00;101408.06;5023964;28;20296;-89
2022/09/18 11:01:02;;;;;;;4.22;0.88;;;;;;;14.86;100.00;101397.84;5029818;28;20053;-89
2022/09/18 11:03:38;;;;;;;3.08;0.90;;;;;;;14.57;100.00;101403.78;5030253;28;20100;-88
2022/09/18 11:06:07;;;;;;;17.92;1.20;;;;;;;14.09;100.00;101439.84;5028002;28;20132;-87
2022/09/18 11:08:39;;;;;;;39.10;1.85;;;;;;;13.22;100.00;101467.25;5022089;28;20024;-87
2022/09/18 11:11:09;;;;;;;22.52;1.73;;;;;;;12.20;100.00;101439.28;5028291;28;20065;-88
2022/09/18 11:13:47;;;;;;;7.13;1.38;;;;;;;11.64;100.00;101415.25;5028277;28;20069;-87
2022/09/18 11:16:22;;;;;;;6.00;0.80;;;;;;;11.58;100.00;101419.75;5028510;28;20025;-87
2022/09/18 11:19:00;;;;;;;5.47;0.50;;;;;;;11.56;100.00;101407.66;5027486;28;20026;-84
2022/09/18 11:21:25;;;;;;;4.90;0.60;;;;;;;11.74;100.00;101425.31;5027026;28;20393;-86
2022/09/18 11:24:04;;;;;;;7.43;0.57;;;;;;;11.68;100.00;101413.69;5028678;28;20326;-84
2022/09/18 11:26:30;;;;;;;6.55;0.60;;;;;;;11.65;100.00;101420.38;5020689;28;20041;-86
2022/09/18 11:29:18;;;;;;;5.60;0.52;;;;;;;11.79;100.00;101423.47;5025870;28;20021;-86
2022/09/18 11:31:58;;;;;;;4.75;0.60;;;;;;;11.73;100.00;101418.31;5030609;28;20044;-87
2022/09/18 11:34:37;;;;;;;3.45;0.70;;;;;;;11.71;100.00;101421.25;5034156;28;20037;-87
2022/09/18 11:37:10;;;;;;;5.47;0.70;;;;;;;11.92;100.00;101433.03;5034016;28;20067;-87
2022/09/18 11:39:39;;;;;;;5.17;0.80;;;;;;;12.23;100.00;101435.25;5031686;28;20861;-87
2022/09/18 11:42:23;;;;;;;5.88;0.80;;;;;;;12.45;100.00;101434.38;5030777;28;20515;-88
2022/09/18 11:44:48;;;;;;;2.88;0.77;;;;;;;12.63;100.00;101441.25;5025952;28;20052;-85